createdAt,value
2023-05-08T00:01:07.580Z,1.23
2023-05-08T00:03:37.004Z,0.47
2023-05-08T00:06:06.874Z,0.95
2023-05-08T00:08:36.227Z,0.75
2023-05-08T00:11:05.469Z,0.47
2023-05-08T00:13:36.112Z,0.60
2023-05-08T00:16:05.526Z,0.40
2023-05-08T00:18:34.707Z,0.52
2023-05-08T00:21:03.875Z,0.68
2023-05-08T00:23:33.076Z,0.40
2023-05-08T00:26:02.317Z,0.40
2023-05-08T00:28:31.654Z,0.60
2023-05-08T00:31:03.255Z,0.65
2023-05-08T00:33:32.581Z,1.17
2023-05-08T00:36:02.658Z,0.50
2023-05-08T00:38:32.672Z,0.55
2023-05-08T00:41:01.938Z,0.38
2023-05-08T00:43:31.308Z,0.40
2023-05-08T00:46:02.914Z,0.40
2023-05-08T00:48:33.902Z,0.65
2023-05-08T00:51:06.403Z,0.38
2023-05-08T00:53:38.779Z,0.73
2023-05-08T00:56:12.194Z,0.73
2023-05-08T00:58:42.467Z,1.60
2023-05-08T01:01:13.754Z,1.52
2023-05-08T01:03:45.045Z,0.40
2023-05-08T01:06:14.583Z,0.47
2023-05-08T01:08:46.343Z,0.90
2023-05-08T01:11:23.558Z,1.17
2023-05-08T01:14:02.753Z,0.82
2023-05-08T01:16:40.125Z,0.30
2023-05-08T01:19:30.916Z,1.20
2023-05-08T01:22:12.358Z,0.90
2023-05-08T01:25:32.413Z,0.95
2023-05-08T01:28:21.564Z,0.50
2023-05-08T01:31:04.400Z,1.05
2023-05-08T01:33:43.039Z,0.30
2023-05-08T01:36:22.078Z,0.43
2023-05-08T01:38:57.655Z,0.20
2023-05-08T01:41:29.527Z,0.43
2023-05-08T01:44:11.131Z,1.40
2023-05-08T01:46:40.479Z,0.80
2023-05-08T01:49:18.817Z,0.55
2023-05-08T01:51:53.376Z,1.40
2023-05-08T01:54:27.196Z,0.65
2023-05-08T01:56:59.151Z,0.35
2023-05-08T01:59:30.691Z,0.85
2023-05-08T02:02:02.446Z,0.50
2023-05-08T02:04:36.097Z,0.30
2023-05-08T02:07:10.116Z,0.47
2023-05-08T02:09:40.527Z,1.55
2023-05-08T02:12:10.634Z,0.40
2023-05-08T02:14:41.516Z,0.30
2023-05-08T02:17:13.052Z,0.30
2023-05-08T02:19:46.095Z,0.60
2023-05-08T02:22:16.710Z,1.55
2023-05-08T02:24:47.518Z,0.77
2023-05-08T02:27:18.042Z,1.05
2023-05-08T02:29:47.368Z,2.25
2023-05-08T02:32:18.632Z,1.52
2023-05-08T02:35:01.988Z,0.68
2023-05-08T02:37:33.443Z,0.52
2023-05-08T02:40:05.758Z,2.50
2023-05-08T02:42:35.428Z,0.40
2023-05-08T02:45:05.315Z,0.40
2023-05-08T02:47:43.007Z,0.65
2023-05-08T02:50:21.310Z,0.52
2023-05-08T02:52:53.774Z,0.43
2023-05-08T02:55:37.143Z,0.70
2023-05-08T02:58:13.447Z,0.60
2023-05-08T03:00:47.047Z,0.43
2023-05-08T03:03:23.077Z,0.30
2023-05-08T03:05:57.682Z,0.30
2023-05-08T03:08:29.993Z,1.20
2023-05-08T03:11:02.629Z,0.30
2023-05-08T03:13:35.612Z,0.32
2023-05-08T03:16:07.756Z,0.35
2023-05-08T03:18:42.966Z,0.30
2023-05-08T03:21:17.797Z,0.75
2023-05-08T03:23:49.478Z,0.50
2023-05-08T03:26:21.416Z,0.30
2023-05-08T03:28:52.311Z,2.58
2023-05-08T03:31:25.156Z,0.47
2023-05-08T03:33:56.703Z,0.40
2023-05-08T03:36:29.030Z,0.35
2023-05-08T03:38:58.672Z,0.50
2023-05-08T03:41:28.053Z,0.50
2023-05-08T03:43:58.508Z,0.32
2023-05-08T03:46:28.003Z,0.52
2023-05-08T03:49:00.516Z,0.30
2023-05-08T03:51:31.666Z,0.20
2023-05-08T03:54:01.087Z,0.52
2023-05-08T03:56:30.285Z,0.80
2023-05-08T03:59:11.237Z,1.40
2023-05-08T04:01:42.007Z,0.60
2023-05-08T04:04:19.900Z,0.43
2023-05-08T04:06:55.708Z,0.60
2023-05-08T04:09:38.843Z,0.40
2023-05-08T04:12:17.324Z,0.73
2023-05-08T04:14:53.089Z,0.57
2023-05-08T04:17:35.191Z,0.40
2023-05-08T04:20:08.357Z,0.47
2023-05-08T04:22:41.888Z,0.70
2023-05-08T04:25:13.466Z,0.68
2023-05-08T04:27:44.947Z,0.40
2023-05-08T04:30:15.895Z,1.70
2023-05-08T04:32:47.075Z,0.57
2023-05-08T04:35:17.913Z,0.43
2023-05-08T04:37:49.746Z,0.32
2023-05-08T04:40:19.944Z,0.68
2023-05-08T04:42:49.388Z,0.60
2023-05-08T04:45:21.025Z,3.88
2023-05-08T04:47:50.502Z,3.13
2023-05-08T04:50:20.403Z,2.50
2023-05-08T04:52:52.346Z,4.18
2023-05-08T04:55:22.205Z,2.40
2023-05-08T04:57:51.549Z,4.97
2023-05-08T05:00:21.871Z,4.43
2023-05-08T05:02:51.443Z,4.28
2023-05-08T05:05:21.191Z,0.63
2023-05-08T05:07:51.946Z,1.20
2023-05-08T05:10:22.820Z,2.47
2023-05-08T05:12:52.874Z,1.48
2023-05-08T05:15:22.762Z,2.80
2023-05-08T05:17:52.192Z,1.48
2023-05-08T05:20:21.746Z,0.70
2023-05-08T05:22:52.682Z,3.75
2023-05-08T05:25:22.166Z,0.73
2023-05-08T05:27:51.735Z,0.70
2023-05-08T05:30:21.355Z,1.23
2023-05-08T05:32:50.936Z,0.80
2023-05-08T05:35:20.271Z,0.93
2023-05-08T05:37:49.780Z,0.88
2023-05-08T05:40:21.617Z,0.68
2023-05-08T05:42:51.375Z,0.45
2023-05-08T05:45:21.635Z,1.85
2023-05-08T05:47:54.264Z,1.63
2023-05-08T05:50:26.906Z,0.63
2023-05-08T05:52:57.545Z,1.17
2023-05-08T05:55:29.626Z,2.45
2023-05-08T05:57:59.355Z,2.55
2023-05-08T06:00:28.998Z,2.42
2023-05-08T06:02:59.357Z,4.70
2023-05-08T06:05:28.868Z,4.82
2023-05-08T06:07:58.072Z,4.53
2023-05-08T06:10:29.062Z,1.77
2023-05-08T06:13:03.553Z,5.75
2023-05-08T06:15:33.432Z,3.88
2023-05-08T06:18:03.820Z,0.80
2023-05-08T06:20:35.615Z,1.70
2023-05-08T06:23:05.127Z,2.35
2023-05-08T06:25:35.812Z,2.17
2023-05-08T06:28:06.904Z,2.15
2023-05-08T06:30:36.407Z,2.25
2023-05-08T06:33:06.113Z,2.08
2023-05-08T06:35:35.484Z,3.78
2023-05-08T06:38:05.456Z,1.42
2023-05-08T06:41:23.951Z,2.38
2023-05-08T06:43:55.702Z,2.55
2023-05-08T06:46:25.141Z,0.70
2023-05-08T06:49:30.214Z,2.78
2023-05-08T06:55:12.211Z,0.85
2023-05-08T06:57:43.033Z,3.45
2023-05-08T07:00:13.732Z,0.68
2023-05-08T07:02:42.961Z,1.70
2023-05-08T07:05:12.798Z,3.78
2023-05-08T07:07:43.077Z,2.65
2023-05-08T07:10:12.795Z,1.00
2023-05-08T07:12:43.543Z,4.22
2023-05-08T07:15:25.343Z,3.97
2023-05-08T07:17:56.007Z,1.05
2023-05-08T07:20:25.684Z,3.97
2023-05-08T07:22:55.272Z,1.55
2023-05-08T07:25:24.733Z,4.82
2023-05-08T07:27:55.401Z,3.38
2023-05-08T07:30:24.836Z,1.73
2023-05-08T07:32:55.716Z,8.93
2023-05-08T07:35:25.007Z,7.75
2023-05-08T07:37:54.414Z,5.18
2023-05-08T07:40:23.734Z,2.17
2023-05-08T07:42:54.327Z,6.63
2023-05-08T07:45:23.743Z,3.60
2023-05-08T07:47:53.809Z,3.92
2023-05-08T07:50:23.850Z,5.75
2023-05-08T07:52:53.656Z,9.88
2023-05-08T07:55:22.878Z,8.13
2023-05-08T07:57:52.225Z,4.18
2023-05-08T08:00:23.282Z,3.83
2023-05-08T08:02:52.861Z,5.40
2023-05-08T08:05:22.440Z,3.25
2023-05-08T08:07:51.796Z,3.58
2023-05-08T08:10:21.084Z,5.82
2023-05-08T08:12:51.740Z,5.25
2023-05-08T08:15:22.821Z,6.07
2023-05-08T08:17:52.282Z,4.55
2023-05-08T08:20:21.876Z,2.40
2023-05-08T08:22:51.155Z,2.20
2023-05-08T08:25:20.440Z,1.55
2023-05-08T08:27:49.696Z,5.82
2023-05-08T08:30:19.092Z,5.35
2023-05-08T08:32:50.053Z,3.67
2023-05-08T08:35:19.677Z,6.47
2023-05-08T08:37:49.129Z,6.32
2023-05-08T08:40:18.418Z,4.45
2023-05-08T08:43:54.558Z,7.93
2023-05-08T08:46:28.339Z,4.57
2023-05-08T08:48:59.337Z,4.13
2023-05-08T08:51:33.034Z,4.68
2023-05-08T08:54:07.650Z,5.88
2023-05-08T08:56:39.609Z,2.60
2023-05-08T08:59:12.768Z,6.63
2023-05-08T09:01:44.278Z,5.97
2023-05-08T09:04:13.867Z,8.65
2023-05-08T09:06:43.176Z,2.83
2023-05-08T09:09:13.916Z,4.20
2023-05-08T09:11:45.121Z,5.15
2023-05-08T09:14:15.849Z,9.80
2023-05-08T09:16:46.204Z,4.45
2023-05-08T09:19:16.455Z,11.98
2023-05-08T09:21:46.856Z,13.40
2023-05-08T09:24:16.156Z,29.60
2023-05-08T09:26:45.465Z,79.47
2023-05-08T09:29:17.446Z,79.55
2023-05-08T09:31:49.145Z,109.40
2023-05-08T09:34:27.350Z,109.32
2023-05-08T09:36:56.871Z,84.40
2023-05-08T09:39:27.886Z,90.70
2023-05-08T09:42:00.954Z,85.28
2023-05-08T09:44:45.624Z,68.20
2023-05-08T09:47:15.931Z,64.22
2023-05-08T09:50:01.867Z,66.55
2023-05-08T09:52:31.942Z,56.30
2023-05-08T09:55:02.353Z,53.47
2023-05-08T09:57:32.899Z,60.20
2023-05-08T10:00:13.470Z,65.20
2023-05-08T10:02:55.332Z,52.10
2023-05-08T10:05:27.306Z,45.55
2023-05-08T10:07:56.699Z,39.20
2023-05-08T10:10:30.935Z,33.67
2023-05-08T10:13:00.650Z,29.70
2023-05-08T10:15:34.570Z,33.47
2023-05-08T10:18:06.665Z,32.38
2023-05-08T10:20:39.265Z,32.10
2023-05-08T10:23:12.580Z,29.65
2023-05-08T10:25:46.103Z,25.30
2023-05-08T10:28:19.993Z,32.00
2023-05-08T10:30:51.821Z,25.85
2023-05-08T10:33:24.883Z,25.60
2023-05-08T10:35:54.919Z,21.83
2023-05-08T10:38:24.583Z,21.40
2023-05-08T10:40:58.304Z,23.65
2023-05-08T10:43:27.757Z,20.20
2023-05-08T10:46:00.474Z,22.08
2023-05-08T10:48:37.596Z,18.60
2023-05-08T10:51:13.919Z,20.00
2023-05-08T10:53:50.470Z,20.05
2023-05-08T10:56:19.613Z,19.48
2023-05-08T10:58:57.927Z,19.08
2023-05-08T11:01:28.821Z,17.00
2023-05-08T11:03:58.418Z,18.85
2023-05-08T11:06:49.181Z,17.25
2023-05-08T11:09:23.441Z,15.85
2023-05-08T11:12:03.624Z,19.75
2023-05-08T11:14:34.955Z,16.88
2023-05-08T11:17:09.172Z,16.38
2023-05-08T11:19:39.412Z,17.80
2023-05-08T11:22:33.254Z,13.63
2023-05-08T11:25:05.323Z,15.80
2023-05-08T11:27:39.916Z,15.23
2023-05-08T11:30:28.471Z,16.30
2023-05-08T11:33:00.538Z,12.23
2023-05-08T11:35:50.323Z,15.38
2023-05-08T11:38:27.851Z,20.92
2023-05-08T11:41:07.621Z,15.73
2023-05-08T11:46:41.741Z,16.73
2023-05-08T11:49:18.463Z,12.00
2023-05-08T11:51:55.177Z,13.57
2023-05-08T11:54:25.322Z,12.10
2023-05-08T11:56:55.486Z,13.85
2023-05-08T11:59:24.750Z,12.85
2023-05-08T12:02:06.834Z,10.38
2023-05-08T12:04:47.287Z,12.27
2023-05-08T12:07:17.341Z,12.88
2023-05-08T12:09:48.716Z,10.40
2023-05-08T12:12:18.008Z,13.02
2023-05-08T12:14:51.450Z,10.60
2023-05-08T12:17:20.751Z,11.63
2023-05-08T12:19:56.709Z,12.32
2023-05-08T12:22:25.994Z,12.45
2023-05-08T12:24:55.201Z,9.90
2023-05-08T12:27:26.788Z,10.40
2023-05-08T12:29:56.085Z,11.05
2023-05-08T12:32:27.113Z,10.13
2023-05-08T12:34:59.162Z,10.40
2023-05-08T12:37:29.098Z,7.95
2023-05-08T12:39:59.310Z,8.82
2023-05-08T12:42:43.945Z,8.68
2023-05-08T12:45:19.733Z,12.27
2023-05-08T12:47:50.075Z,11.98
2023-05-08T12:50:23.125Z,9.10
2023-05-08T12:52:52.978Z,10.50
2023-05-08T12:55:23.828Z,9.23
2023-05-08T12:58:02.581Z,7.88
2023-05-08T13:00:39.663Z,8.68
2023-05-08T13:03:11.117Z,11.10
2023-05-08T13:05:44.139Z,8.02
2023-05-08T13:08:13.967Z,8.77
2023-05-08T13:10:50.575Z,8.38
2023-05-08T13:13:21.599Z,7.25
2023-05-08T13:15:52.198Z,6.47
2023-05-08T13:18:23.228Z,8.65
2023-05-08T13:20:53.890Z,6.22
2023-05-08T13:23:23.248Z,9.45
2023-05-08T13:25:53.118Z,6.78
2023-05-08T13:28:22.258Z,8.80
2023-05-08T13:30:51.500Z,8.60
2023-05-08T13:33:20.736Z,6.30
2023-05-08T13:35:49.922Z,10.20
2023-05-08T13:38:20.578Z,7.95
2023-05-08T13:40:49.773Z,6.95
2023-05-08T13:43:18.978Z,8.30
2023-05-08T13:45:48.390Z,5.43
2023-05-08T13:48:17.662Z,8.15
2023-05-08T13:50:46.896Z,7.75
2023-05-08T13:53:16.111Z,4.85
2023-05-08T13:55:46.754Z,4.95
2023-05-08T13:58:16.050Z,6.68
2023-05-08T14:00:45.667Z,7.95
2023-05-08T14:03:15.214Z,5.28
2023-05-08T14:05:44.575Z,6.32
2023-05-08T14:08:13.697Z,3.38
2023-05-08T14:10:42.870Z,4.00
2023-05-08T14:13:13.672Z,4.32
2023-05-08T14:15:43.817Z,7.57
2023-05-08T14:18:13.100Z,4.00
2023-05-08T14:20:45.298Z,7.72
2023-05-08T14:23:16.858Z,12.85
2023-05-08T14:25:46.204Z,6.53
2023-05-08T14:28:17.006Z,5.63
2023-05-08T14:30:46.318Z,5.35
2023-05-08T14:33:17.223Z,5.55
2023-05-08T14:35:48.631Z,9.88
2023-05-08T14:38:17.778Z,8.63
2023-05-08T14:40:46.953Z,6.85
2023-05-08T14:43:17.893Z,6.32
2023-05-08T14:45:47.157Z,6.72
2023-05-08T14:48:16.516Z,8.20
2023-05-08T14:50:45.716Z,6.97
2023-05-08T14:53:15.443Z,6.43
2023-05-08T14:55:45.023Z,5.95
2023-05-08T14:58:14.384Z,4.53
2023-05-08T15:00:45.074Z,5.95
2023-05-08T15:03:14.497Z,6.00
2023-05-08T15:05:43.846Z,5.30
2023-05-08T15:08:13.478Z,9.07
2023-05-08T15:10:42.703Z,6.05
2023-05-08T15:13:11.944Z,7.13
2023-05-08T15:15:41.260Z,5.78
2023-05-08T15:18:11.792Z,4.32
2023-05-08T15:20:41.167Z,6.57
2023-05-08T15:23:10.534Z,2.85
2023-05-08T15:25:39.710Z,5.28
2023-05-08T15:28:08.927Z,5.18
2023-05-08T15:30:38.150Z,3.17
2023-05-08T15:33:07.575Z,9.80
2023-05-08T15:35:38.304Z,4.72
2023-05-08T15:38:07.825Z,6.13
2023-05-08T15:40:37.053Z,3.30
2023-05-08T15:43:06.264Z,7.28
2023-05-08T15:45:35.505Z,8.00
2023-05-08T15:48:04.773Z,3.83
2023-05-08T15:50:34.018Z,5.97
2023-05-08T15:53:05.074Z,4.80
2023-05-08T15:55:34.415Z,5.57
2023-05-08T15:58:03.768Z,6.15
2023-05-08T16:00:43.959Z,3.63
2023-05-08T16:03:15.041Z,2.50
2023-05-08T16:05:44.578Z,6.15
2023-05-08T16:08:15.485Z,4.30
2023-05-08T16:10:45.725Z,4.70
2023-05-08T16:13:15.365Z,4.13
2023-05-08T16:15:44.744Z,3.55
2023-05-08T16:18:14.090Z,4.57
2023-05-08T16:20:43.597Z,3.38
2023-05-08T16:23:14.715Z,3.55
2023-05-08T16:25:45.376Z,5.40
2023-05-08T16:28:14.677Z,4.30
2023-05-08T16:30:44.112Z,4.93
2023-05-08T16:33:13.698Z,4.18
2023-05-08T16:35:43.489Z,2.05
2023-05-08T16:38:12.920Z,3.97
2023-05-08T16:40:42.892Z,2.22
2023-05-08T16:43:13.486Z,3.13
2023-05-08T16:45:43.468Z,5.07
2023-05-08T16:48:12.676Z,4.75
2023-05-08T16:50:41.862Z,4.07
2023-05-08T16:53:11.150Z,2.85
2023-05-08T16:55:40.359Z,5.68
2023-05-08T16:58:10.140Z,4.00
2023-05-08T17:00:40.871Z,2.03
2023-05-08T17:03:10.240Z,3.50
2023-05-08T17:05:39.539Z,3.03
2023-05-08T17:08:08.743Z,5.13
2023-05-08T17:10:37.900Z,3.67
2023-05-08T17:13:07.215Z,3.28
2023-05-08T17:15:36.718Z,3.88
2023-05-08T17:18:07.500Z,3.70
2023-05-08T17:20:41.084Z,1.65
2023-05-08T17:23:11.785Z,6.07
2023-05-08T17:25:42.394Z,3.25
2023-05-08T17:28:11.597Z,2.60
2023-05-08T17:30:41.250Z,2.35
2023-05-08T17:33:12.124Z,2.75
2023-05-08T17:35:41.356Z,3.72
2023-05-08T17:38:10.560Z,1.77
2023-05-08T17:40:40.345Z,3.40
2023-05-08T17:43:09.574Z,5.22
2023-05-08T17:45:39.009Z,4.68
2023-05-08T17:48:08.511Z,5.72
2023-05-08T17:50:42.228Z,3.85
2023-05-08T17:53:11.467Z,8.57
2023-05-08T17:55:40.598Z,1.48
2023-05-08T17:58:10.413Z,5.43
2023-05-08T18:00:39.794Z,4.80
2023-05-08T18:03:09.796Z,8.40
2023-05-08T18:05:41.712Z,4.70
2023-05-08T18:08:11.161Z,5.70
2023-05-08T18:10:40.582Z,4.57
2023-05-08T18:13:10.035Z,5.63
2023-05-08T18:15:42.510Z,5.95
2023-05-08T18:18:11.934Z,7.07
2023-05-08T18:20:42.854Z,6.32
2023-05-08T18:23:12.421Z,4.43
2023-05-08T18:25:42.236Z,2.05
2023-05-08T18:28:11.752Z,3.83
2023-05-08T18:30:40.993Z,1.17
2023-05-08T18:33:10.161Z,1.77
2023-05-08T18:35:39.495Z,5.97
2023-05-08T18:38:10.358Z,5.10
2023-05-08T18:40:39.793Z,4.20
2023-05-08T18:43:09.213Z,1.83
2023-05-08T18:45:41.041Z,10.23
2023-05-08T18:48:11.054Z,2.78
2023-05-08T18:50:40.391Z,2.97
2023-05-08T18:53:11.080Z,1.00
2023-05-08T18:55:40.396Z,2.33
2023-05-08T18:58:09.595Z,3.42
2023-05-08T19:00:39.463Z,2.55
2023-05-08T19:03:08.934Z,5.70
2023-05-08T19:05:38.707Z,7.60
2023-05-08T19:08:08.793Z,6.75
2023-05-08T19:10:39.976Z,3.58
2023-05-08T19:13:09.774Z,3.17
2023-05-08T19:15:39.168Z,2.38
2023-05-08T19:18:09.301Z,5.68
2023-05-08T19:20:39.937Z,4.97
2023-05-08T19:23:09.490Z,3.70
2023-05-08T19:25:40.711Z,2.80
2023-05-08T19:28:09.944Z,3.20
2023-05-08T19:30:39.573Z,1.85
2023-05-08T19:33:09.522Z,3.92
2023-05-08T19:35:39.025Z,4.53
2023-05-08T19:38:08.509Z,13.43
2023-05-08T19:40:54.918Z,11.90
2023-05-08T19:43:25.702Z,5.32
2023-05-08T19:45:55.095Z,6.78
2023-05-08T19:48:24.616Z,3.60
2023-05-08T19:50:56.179Z,3.38
2023-05-08T19:53:25.618Z,6.13
2023-05-08T19:55:56.632Z,2.72
2023-05-08T19:58:26.047Z,2.88
2023-05-08T20:00:55.395Z,2.33
2023-05-08T20:03:25.054Z,2.95
2023-05-08T20:05:54.755Z,6.53
2023-05-08T20:08:24.646Z,1.27
2023-05-08T20:10:55.540Z,4.10
2023-05-08T20:13:25.364Z,2.03
2023-05-08T20:15:54.981Z,7.78
2023-05-08T20:18:24.370Z,3.13
2023-05-08T20:20:54.030Z,3.08
2023-05-08T20:23:23.615Z,4.22
2023-05-08T20:25:54.416Z,1.00
2023-05-08T20:28:25.307Z,2.83
2023-05-08T20:30:54.659Z,3.85
2023-05-08T20:33:23.986Z,2.78
2023-05-08T20:35:54.716Z,3.67
2023-05-08T20:38:24.044Z,3.03
2023-05-08T20:40:55.793Z,2.75
2023-05-08T20:43:29.620Z,3.50
2023-05-08T20:45:58.998Z,2.53
2023-05-08T20:48:28.502Z,2.15
2023-05-08T20:50:57.825Z,8.38
2023-05-08T20:53:27.128Z,2.38
2023-05-08T20:56:02.110Z,1.35
2023-05-08T20:58:33.150Z,4.30
2023-05-08T21:01:02.502Z,0.60
2023-05-08T21:03:31.898Z,1.45
2023-05-08T21:06:01.090Z,1.38
2023-05-08T21:08:30.242Z,2.03
2023-05-08T21:10:59.395Z,2.45
2023-05-08T21:13:28.569Z,1.63
2023-05-08T21:15:59.209Z,1.83
2023-05-08T21:18:28.550Z,2.67
2023-05-08T21:20:57.649Z,1.65
2023-05-08T21:23:26.890Z,2.95
2023-05-08T21:25:56.075Z,2.85
2023-05-08T21:28:25.249Z,4.32
2023-05-08T21:30:54.412Z,1.10
2023-05-08T21:33:25.012Z,1.42
2023-05-08T21:35:54.177Z,3.28
2023-05-08T21:38:23.332Z,1.73
2023-05-08T21:40:53.145Z,1.20
2023-05-08T21:43:22.288Z,2.38
2023-05-08T21:45:51.639Z,1.27
2023-05-08T21:48:20.805Z,1.27
2023-05-08T21:50:51.626Z,2.80
2023-05-08T21:53:21.002Z,1.05
2023-05-08T21:55:50.629Z,1.45
2023-05-08T21:58:19.811Z,1.65
2023-05-08T22:00:48.944Z,1.52
2023-05-08T22:03:18.307Z,1.70
2023-05-08T22:05:47.524Z,1.27
2023-05-08T22:08:18.117Z,1.75
2023-05-08T22:10:47.308Z,2.83
2023-05-08T22:13:16.571Z,3.92
2023-05-08T22:15:45.949Z,2.45
2023-05-08T22:18:15.179Z,0.70
2023-05-08T22:20:44.388Z,3.00
2023-05-08T22:23:13.781Z,1.75
2023-05-08T22:25:44.526Z,0.80
2023-05-08T22:28:13.799Z,0.65
2023-05-08T22:30:42.997Z,2.75
2023-05-08T22:33:12.473Z,1.75
2023-05-08T22:35:41.698Z,1.90
2023-05-08T22:38:10.815Z,1.95
2023-05-08T22:40:40.086Z,0.70
2023-05-08T22:43:10.934Z,1.45
2023-05-08T22:45:40.184Z,1.83
2023-05-08T22:48:10.641Z,0.80
2023-05-08T22:50:39.833Z,0.68
2023-05-08T22:53:10.711Z,1.52
2023-05-08T22:55:41.819Z,0.50
2023-05-08T22:58:12.422Z,0.75
2023-05-08T23:00:41.729Z,0.55
2023-05-08T23:03:10.871Z,0.65
2023-05-08T23:05:40.795Z,1.55
2023-05-08T23:08:10.101Z,1.17
2023-05-08T23:10:39.390Z,0.50
2023-05-08T23:13:08.658Z,0.73
2023-05-08T23:15:39.423Z,0.30
2023-05-08T23:18:08.604Z,1.42
2023-05-08T23:20:37.890Z,0.93
2023-05-08T23:23:07.066Z,1.02
2023-05-08T23:25:36.232Z,1.67
2023-05-08T23:28:05.479Z,0.63
2023-05-08T23:30:34.678Z,1.40
2023-05-08T23:33:05.526Z,1.42
2023-05-08T23:35:34.922Z,1.67
2023-05-08T23:38:04.050Z,0.50
2023-05-08T23:40:33.268Z,0.50
2023-05-08T23:43:02.482Z,0.75
2023-05-08T23:45:31.669Z,0.68
2023-05-08T23:48:00.877Z,0.75
2023-05-08T23:50:31.512Z,2.10
2023-05-08T23:53:00.953Z,0.75
2023-05-08T23:55:31.860Z,0.57
2023-05-08T23:58:01.035Z,2.25
